Time;durP1;ratioP1;P1;durP2;ratioP2;P2;SDS_P1;SDS_P2;PMS_P1;PMS_P2;Temp;Humidity;BMP_temperature;BMP_pressure;BME280_temperature;BME280_humidity;BME280_pressure;Samples;Min_cycle;Max_cycle;Signal;HPM_P1;HPM_P2
2023/10/30 00:02:10;;;;;;;12.60;2.55;;;11.00;99.90;;;;;;5040860;28;20033;-73
2023/10/30 00:04:36;;;;;;;13.23;3.08;;;11.00;99.90;;;;;;5041474;28;20034;-74
2023/10/30 00:07:02;;;;;;;8.48;2.60;;;11.00;99.90;;;;;;5042871;28;20026;-73
2023/10/30 00:09:28;;;;;;;12.05;2.03;;;11.00;99.90;;;;;;5041387;28;20044;-74
2023/10/30 00:11:54;;;;;;;12.00;2.22;;;11.00;99.90;;;;;;5040926;28;20413;-76
2023/10/30 00:14:20;;;;;;;7.75;1.83;;;11.10;99.90;;;;;;5040628;28;20038;-74
2023/10/30 00:16:45;;;;;;;8.40;2.00;;;11.00;99.90;;;;;;5041526;28;20029;-76
2023/10/30 00:19:11;;;;;;;13.07;2.35;;;11.00;99.90;;;;;;5037957;28;20029;-75
2023/10/30 00:21:38;;;;;;;9.18;1.65;;;11.10;99.90;;;;;;5040962;28;20026;-74
2023/10/30 00:24:04;;;;;;;8.90;2.03;;;11.00;99.90;;;;;;5039915;28;20021;-76
2023/10/30 00:26:29;;;;;;;6.70;1.48;;;11.00;99.90;;;;;;5039865;28;20171;-75
2023/10/30 00:28:57;;;;;;;10.05;1.95;;;11.00;99.90;;;;;;5040254;28;20109;-76
2023/10/30 00:31:23;;;;;;;7.80;1.50;;;11.00;99.90;;;;;;5039904;28;20048;-75
2023/10/30 00:33:49;;;;;;;18.45;4.03;;;11.00;99.90;;;;;;5041789;28;20029;-76
2023/10/30 00:36:15;;;;;;;10.20;2.45;;;10.90;99.90;;;;;;5038550;28;20056;-75
2023/10/30 00:38:40;;;;;;;7.22;3.10;;;10.90;99.90;;;;;;5041766;28;20048;-73
2023/10/30 00:41:10;;;;;;;10.60;3.35;;;10.90;99.90;;;;;;5040710;28;20104;-80
2023/10/30 00:43:37;;;;;;;19.98;3.55;;;10.90;99.90;;;;;;5040291;28;20021;-75
2023/10/30 00:46:06;;;;;;;10.02;2.60;;;10.90;99.90;;;;;;5039846;28;20049;-76
2023/10/30 00:48:33;;;;;;;11.52;2.80;;;10.90;99.90;;;;;;5039532;28;20637;-74
2023/10/30 00:50:59;;;;;;;8.48;2.75;;;10.90;99.90;;;;;;5040491;28;20052;-76
2023/10/30 00:53:25;;;;;;;11.73;2.80;;;10.90;99.90;;;;;;5041417;28;20033;-75
2023/10/30 00:55:51;;;;;;;10.98;2.88;;;10.90;99.90;;;;;;5041703;28;20101;-76
2023/10/30 00:58:17;;;;;;;9.43;2.85;;;10.90;99.90;;;;;;5038696;28;20033;-77
2023/10/30 01:00:43;;;;;;;12.88;2.50;;;10.90;99.90;;;;;;5041090;28;20025;-76
2023/10/30 01:03:08;;;;;;;6.05;2.28;;;11.00;99.90;;;;;;5039356;28;20034;-78
2023/10/30 01:05:34;;;;;;;8.02;2.20;;;10.90;99.90;;;;;;5040706;28;20022;-76
2023/10/30 01:08:00;;;;;;;9.50;1.70;;;10.90;99.90;;;;;;5041228;28;20017;-75
2023/10/30 01:10:26;;;;;;;6.63;1.50;;;10.90;99.90;;;;;;5040850;28;20116;-77
2023/10/30 01:12:52;;;;;;;4.22;1.50;;;10.90;99.90;;;;;;5038488;28;20128;-75
2023/10/30 01:15:18;;;;;;;5.55;1.50;;;10.90;99.90;;;;;;5040049;28;20026;-77
2023/10/30 01:17:44;;;;;;;10.93;3.08;;;10.90;99.90;;;;;;5040410;28;20037;-76
2023/10/30 01:20:10;;;;;;;14.23;2.25;;;10.90;99.90;;;;;;5040504;28;20075;-77
2023/10/30 01:22:35;;;;;;;7.03;1.88;;;10.90;99.90;;;;;;5040675;28;20029;-74
2023/10/30 01:25:01;;;;;;;3.63;1.05;;;11.00;99.90;;;;;;5041084;28;20037;-76
2023/10/30 01:27:27;;;;;;;13.07;2.67;;;10.90;99.90;;;;;;5039519;28;20104;-77
2023/10/30 01:29:54;;;;;;;6.97;1.67;;;10.90;99.90;;;;;;5039670;28;20026;-75
2023/10/30 01:32:19;;;;;;;13.05;1.80;;;11.00;99.90;;;;;;5039484;28;20042;-76
2023/10/30 01:34:45;;;;;;;11.93;1.88;;;11.00;99.90;;;;;;5040248;28;20033;-75
2023/10/30 01:37:10;;;;;;;7.90;1.95;;;11.00;99.90;;;;;;5039060;28;20037;-74
2023/10/30 01:39:37;;;;;;;14.35;2.97;;;11.00;99.90;;;;;;5040483;28;20056;-75
2023/10/30 01:42:03;;;;;;;6.53;2.60;;;11.10;99.90;;;;;;5038995;28;20109;-77
2023/10/30 01:44:29;;;;;;;10.02;2.67;;;11.00;99.90;;;;;;5040294;28;20025;-75
2023/10/30 01:46:54;;;;;;;13.90;3.25;;;11.00;99.90;;;;;;5038839;28;20037;-78
2023/10/30 01:49:20;;;;;;;11.13;2.72;;;11.00;99.90;;;;;;5037721;28;20033;-73
2023/10/30 01:51:46;;;;;;;11.38;2.63;;;11.00;99.90;;;;;;5038993;28;20105;-77
2023/10/30 01:54:13;;;;;;;16.52;2.80;;;11.00;99.90;;;;;;5038777;28;20025;-75
2023/10/30 01:56:39;;;;;;;7.68;2.40;;;11.00;99.90;;;;;;5036845;28;20172;-74
2023/10/30 01:59:05;;;;;;;15.38;3.35;;;11.00;99.90;;;;;;5039792;28;20029;-73
2023/10/30 02:01:35;;;;;;;12.45;2.33;;;11.00;99.90;;;;;;5037619;28;20033;-76
2023/10/30 02:04:01;;;;;;;8.80;2.70;;;11.00;99.90;;;;;;5039292;28;20037;-76
2023/10/30 02:06:28;;;;;;;10.18;2.05;;;11.00;99.90;;;;;;5038591;28;20068;-75
2023/10/30 02:08:54;;;;;;;9.23;1.88;;;11.00;99.90;;;;;;5040222;28;20067;-75
2023/10/30 02:11:20;;;;;;;12.77;2.08;;;11.00;99.90;;;;;;5037411;28;20041;-76
2023/10/30 02:13:56;;;;;;;9.65;1.67;;;11.00;99.90;;;;;;5039728;28;20029;-75
2023/10/30 02:16:23;;;;;;;9.10;1.55;;;11.00;99.90;;;;;;5037852;28;20025;-75
2023/10/30 02:18:49;;;;;;;8.88;1.55;;;11.10;99.90;;;;;;5039801;28;20064;-73
2023/10/30 02:21:17;;;;;;;10.32;2.00;;;11.00;99.90;;;;;;5039457;28;20033;-74
2023/10/30 02:23:42;;;;;;;6.75;2.03;;;11.10;99.90;;;;;;5039474;28;20213;-76
2023/10/30 02:26:08;;;;;;;8.82;1.50;;;11.10;99.90;;;;;;5038644;28;20045;-76
2023/10/30 02:28:34;;;;;;;9.77;1.52;;;11.10;99.90;;;;;;5039340;28;20041;-75
2023/10/30 02:31:00;;;;;;;10.68;1.80;;;11.10;99.90;;;;;;5038528;28;20030;-76
2023/10/30 02:33:26;;;;;;;8.02;1.88;;;11.10;99.90;;;;;;5038195;28;20124;-77
2023/10/30 02:35:51;;;;;;;9.75;1.70;;;11.10;99.90;;;;;;5035569;28;20107;-75
2023/10/30 02:38:17;;;;;;;11.07;1.85;;;11.10;99.90;;;;;;5034793;28;20033;-76
2023/10/30 02:40:42;;;;;;;20.52;4.00;;;11.10;99.90;;;;;;5039631;28;20088;-75
2023/10/30 02:43:08;;;;;;;14.27;2.70;;;11.20;99.90;;;;;;5039230;28;20034;-75
2023/10/30 02:45:33;;;;;;;37.22;10.77;;;11.20;99.90;;;;;;5039946;28;20029;-76
2023/10/30 02:47:59;;;;;;;32.38;8.23;;;11.20;99.90;;;;;;5038294;28;20032;-78
2023/10/30 02:50:26;;;;;;;40.67;12.95;;;11.20;99.90;;;;;;5038651;28;20052;-76
2023/10/30 02:52:52;;;;;;;14.50;4.55;;;11.20;99.90;;;;;;5038073;28;20120;-74
2023/10/30 02:55:18;;;;;;;10.52;2.88;;;11.10;99.90;;;;;;5038846;28;20021;-75
2023/10/30 02:57:43;;;;;;;17.85;4.88;;;11.10;99.90;;;;;;5038908;28;20081;-76
2023/10/30 03:00:09;;;;;;;19.35;7.93;;;11.20;99.90;;;;;;5038967;28;20033;-76
2023/10/30 03:02:35;;;;;;;11.05;2.90;;;11.10;99.90;;;;;;5039187;28;20018;-80
2023/10/30 03:05:01;;;;;;;15.63;4.05;;;11.10;99.90;;;;;;5037534;28;20497;-76
2023/10/30 03:07:26;;;;;;;18.70;5.03;;;11.20;99.90;;;;;;5036996;28;20036;-73
2023/10/30 03:09:52;;;;;;;22.05;6.38;;;11.20;99.90;;;;;;5038453;28;20431;-76
2023/10/30 03:12:17;;;;;;;18.83;4.22;;;11.20;99.90;;;;;;5038437;28;20064;-75
2023/10/30 03:14:43;;;;;;;15.82;4.88;;;11.20;99.90;;;;;;5039710;28;20523;-75
2023/10/30 03:17:09;;;;;;;17.48;4.32;;;11.20;99.90;;;;;;5039305;28;20022;-76
2023/10/30 03:19:34;;;;;;;14.77;3.42;;;11.20;99.90;;;;;;5038212;28;20029;-74
2023/10/30 03:22:00;;;;;;;17.90;4.47;;;11.20;99.90;;;;;;5041668;28;20033;-75
2023/10/30 03:24:26;;;;;;;14.65;4.10;;;11.20;99.90;;;;;;5040910;28;20033;-76
2023/10/30 03:26:51;;;;;;;14.05;2.50;;;11.20;99.90;;;;;;5042965;28;20021;-73
2023/10/30 03:29:17;;;;;;;12.05;2.85;;;11.30;99.90;;;;;;5042238;28;20564;-74
2023/10/30 03:31:43;;;;;;;15.82;3.03;;;11.20;99.90;;;;;;5041705;28;20042;-77
2023/10/30 03:34:09;;;;;;;18.20;4.47;;;11.20;99.90;;;;;;5041604;28;20017;-75
2023/10/30 03:36:34;;;;;;;19.30;6.90;;;11.20;99.90;;;;;;5040794;28;20098;-76
2023/10/30 03:39:00;;;;;;;17.27;4.22;;;11.20;99.90;;;;;;5041297;28;20029;-76
2023/10/30 03:41:27;;;;;;;17.30;3.17;;;11.10;99.90;;;;;;5040933;28;20550;-77
2023/10/30 03:43:52;;;;;;;26.17;6.60;;;11.10;99.90;;;;;;5043439;28;20037;-74
2023/10/30 03:46:18;;;;;;;18.70;4.57;;;11.10;99.90;;;;;;5042211;28;20028;-76
2023/10/30 03:48:43;;;;;;;17.10;3.88;;;11.10;99.90;;;;;;5044146;28;20104;-75
2023/10/30 03:51:09;;;;;;;13.40;3.20;;;11.10;99.90;;;;;;5043124;28;20038;-77
2023/10/30 03:53:34;;;;;;;12.65;2.67;;;11.10;99.90;;;;;;5041219;28;20053;-77
2023/10/30 03:56:06;;;;;;;14.88;2.97;;;11.10;99.90;;;;;;5042177;28;20040;-74
2023/10/30 03:58:31;;;;;;;14.63;2.63;;;11.10;99.90;;;;;;5041177;28;20469;-75
2023/10/30 04:01:07;;;;;;;22.35;5.35;;;11.10;99.90;;;;;;5043420;28;20026;-75
2023/10/30 04:03:32;;;;;;;16.98;3.63;;;11.10;99.90;;;;;;5041807;28;20025;-74
2023/10/30 04:06:02;;;;;;;23.35;3.47;;;11.10;99.90;;;;;;5042329;28;20028;-77
2023/10/30 04:08:28;;;;;;;14.00;3.15;;;11.10;99.90;;;;;;5039449;28;20489;-77
2023/10/30 04:10:54;;;;;;;20.13;3.25;;;11.20;99.90;;;;;;5042138;28;20042;-78
2023/10/30 04:13:20;;;;;;;12.63;2.95;;;11.10;99.90;;;;;;5041396;28;20038;-75
2023/10/30 04:15:46;;;;;;;16.73;2.25;;;11.10;99.90;;;;;;5042289;28;20025;-73
2023/10/30 04:18:12;;;;;;;14.65;3.00;;;11.20;99.90;;;;;;5041943;28;20077;-74
2023/10/30 04:20:37;;;;;;;22.95;2.60;;;11.20;99.90;;;;;;5039831;28;20114;-75
2023/10/30 04:23:03;;;;;;;15.57;2.60;;;11.20;99.90;;;;;;5042008;28;20085;-76
2023/10/30 04:25:29;;;;;;;16.25;2.90;;;11.20;99.90;;;;;;5041536;28;20026;-76
2023/10/30 04:27:55;;;;;;;15.65;2.78;;;11.20;99.90;;;;;;5041392;28;20037;-75
2023/10/30 04:30:21;;;;;;;14.23;2.70;;;11.20;99.90;;;;;;5040284;28;20036;-74
2023/10/30 04:32:46;;;;;;;17.70;2.85;;;11.30;99.90;;;;;;5040770;28;20097;-74
2023/10/30 04:35:12;;;;;;;17.05;2.45;;;11.30;99.90;;;;;;5041244;28;20385;-75
2023/10/30 04:37:37;;;;;;;14.10;2.78;;;11.30;99.90;;;;;;5038744;28;20036;-76
2023/10/30 04:40:04;;;;;;;14.43;3.20;;;11.30;99.90;;;;;;5041507;28;20022;-77
2023/10/30 04:42:31;;;;;;;15.32;2.88;;;11.30;99.90;;;;;;5039915;28;20022;-77
2023/10/30 04:44:59;;;;;;;12.38;2.78;;;11.30;99.90;;;;;;5042996;28;20029;-77
2023/10/30 04:47:25;;;;;;;20.45;3.33;;;11.30;99.90;;;;;;5042090;28;20037;-78
2023/10/30 04:49:50;;;;;;;15.90;2.75;;;11.30;99.90;;;;;;5039338;28;20025;-79
2023/10/30 04:52:16;;;;;;;14.73;3.15;;;11.30;99.90;;;;;;5040784;28;20049;-72
2023/10/30 04:54:41;;;;;;;13.25;2.92;;;11.30;99.90;;;;;;5041381;28;20072;-76
2023/10/30 04:57:07;;;;;;;21.13;3.47;;;11.40;99.90;;;;;;5039166;28;20140;-76
2023/10/30 04:59:33;;;;;;;9.98;2.45;;;11.30;99.90;;;;;;5041383;28;20030;-77
2023/10/30 05:02:01;;;;;;;8.85;2.35;;;11.30;99.90;;;;;;5041591;28;20107;-73
2023/10/30 05:04:27;;;;;;;19.75;3.08;;;11.30;99.90;;;;;;5038152;28;20009;-77
2023/10/30 05:06:52;;;;;;;13.00;2.50;;;11.30;99.90;;;;;;5040708;28;20048;-75
2023/10/30 05:09:18;;;;;;;13.85;2.20;;;11.40;99.90;;;;;;5039064;28;20024;-75
2023/10/30 05:11:43;;;;;;;11.70;2.42;;;11.40;99.90;;;;;;5039195;28;20025;-76
2023/10/30 05:14:09;;;;;;;13.60;2.20;;;11.40;99.90;;;;;;5041456;28;20077;-77
2023/10/30 05:16:35;;;;;;;14.32;2.22;;;11.40;99.90;;;;;;5039994;28;20114;-75
2023/10/30 05:19:01;;;;;;;7.85;1.92;;;11.30;99.90;;;;;;5040804;28;20125;-77
2023/10/30 05:21:28;;;;;;;20.35;2.80;;;11.40;99.90;;;;;;5039239;28;20036;-74
2023/10/30 05:23:53;;;;;;;13.07;2.10;;;11.40;99.90;;;;;;5039606;28;20025;-77
2023/10/30 05:26:19;;;;;;;20.05;2.47;;;11.40;99.90;;;;;;5040531;28;20048;-73
2023/10/30 05:28:45;;;;;;;20.25;2.58;;;11.40;99.90;;;;;;5039627;28;20025;-77
2023/10/30 05:31:11;;;;;;;16.10;2.75;;;11.40;99.90;;;;;;5038847;28;20151;-76
2023/10/30 05:33:37;;;;;;;14.93;2.67;;;11.40;99.90;;;;;;5033823;28;20025;-76
2023/10/30 05:36:03;;;;;;;16.63;2.80;;;11.40;99.90;;;;;;5039685;28;20466;-75
2023/10/30 05:38:29;;;;;;;9.95;2.22;;;11.30;99.90;;;;;;5036024;28;20422;-76
2023/10/30 05:40:55;;;;;;;11.27;2.72;;;11.40;99.90;;;;;;5032573;28;20050;-77
2023/10/30 05:43:21;;;;;;;14.00;2.90;;;11.30;99.90;;;;;;5039307;28;20681;-77
2023/10/30 05:45:47;;;;;;;16.33;2.80;;;11.30;99.90;;;;;;5038005;28;20030;-79
2023/10/30 05:48:13;;;;;;;13.57;2.80;;;11.30;99.90;;;;;;5036876;28;20036;-77
2023/10/30 05:50:39;;;;;;;15.95;2.85;;;11.30;99.90;;;;;;5038645;28;20041;-79
2023/10/30 05:53:04;;;;;;;14.02;3.10;;;11.20;99.90;;;;;;5033534;28;20092;-78
2023/10/30 05:55:30;;;;;;;16.02;3.05;;;11.30;99.90;;;;;;5033484;28;20030;-78
2023/10/30 05:57:56;;;;;;;14.05;2.72;;;11.20;99.90;;;;;;5034870;28;21233;-78
2023/10/30 06:00:23;;;;;;;15.63;2.90;;;11.10;99.90;;;;;;5035932;28;20039;-78
2023/10/30 06:02:49;;;;;;;14.18;3.13;;;11.20;99.90;;;;;;5038292;28;20022;-74
2023/10/30 06:05:15;;;;;;;13.57;2.38;;;11.20;99.90;;;;;;5037671;28;20030;-77
2023/10/30 06:07:41;;;;;;;12.60;2.80;;;11.10;99.90;;;;;;5038704;28;20021;-76
2023/10/30 06:10:10;;;;;;;13.75;2.70;;;11.10;99.90;;;;;;5034494;28;20040;-76
2023/10/30 06:12:40;;;;;;;12.25;2.40;;;11.10;99.90;;;;;;5030104;28;20551;-78
2023/10/30 06:15:07;;;;;;;12.02;2.70;;;11.10;99.90;;;;;;5038216;28;20018;-77
2023/10/30 06:17:33;;;;;;;16.48;2.78;;;11.00;99.90;;;;;;5035422;28;20056;-78
2023/10/30 06:19:59;;;;;;;15.63;2.75;;;11.00;99.90;;;;;;5034215;28;20034;-76
2023/10/30 06:22:25;;;;;;;15.65;2.70;;;11.00;99.90;;;;;;5039241;28;20546;-77
2023/10/30 06:24:51;;;;;;;20.23;2.80;;;10.90;99.90;;;;;;5040051;28;20029;-74
2023/10/30 06:27:16;;;;;;;16.33;2.80;;;10.90;99.90;;;;;;5037994;28;20059;-75
2023/10/30 06:29:42;;;;;;;17.80;2.58;;;10.90;99.90;;;;;;5038378;28;20113;-76
2023/10/30 06:32:09;;;;;;;12.32;2.38;;;10.90;99.90;;;;;;5023248;28;20073;-76
2023/10/30 06:34:34;;;;;;;13.77;2.50;;;10.90;99.90;;;;;;5031817;28;20092;-76
2023/10/30 06:37:00;;;;;;;19.40;2.20;;;10.90;99.90;;;;;;5026339;28;20041;-76
2023/10/30 06:39:26;;;;;;;15.55;2.45;;;10.80;99.90;;;;;;5020158;28;20031;-77
2023/10/30 06:41:56;;;;;;;8.63;2.25;;;10.80;99.90;;;;;;5023224;28;20064;-77
2023/10/30 06:44:25;;;;;;;13.98;2.35;;;10.80;99.90;;;;;;5036704;28;20121;-76
2023/10/30 06:46:51;;;;;;;23.95;4.35;;;10.80;99.90;;;;;;5037608;28;20039;-77
2023/10/30 06:49:17;;;;;;;18.13;3.20;;;10.80;99.90;;;;;;5040393;28;20041;-78
2023/10/30 06:51:43;;;;;;;19.70;3.08;;;10.70;99.90;;;;;;5039364;28;20041;-78
2023/10/30 06:54:12;;;;;;;15.50;2.60;;;10.80;99.90;;;;;;5038848;28;20045;-79
2023/10/30 06:56:39;;;;;;;18.63;2.70;;;10.70;99.90;;;;;;5041564;28;20390;-78
2023/10/30 06:59:05;;;;;;;11.90;2.10;;;10.80;99.90;;;;;;5043738;28;20029;-77
2023/10/30 07:01:45;;;;;;;12.13;2.20;;;10.80;99.90;;;;;;5041246;28;20022;-79
2023/10/30 07:04:12;;;;;;;14.60;3.00;;;10.80;99.90;;;;;;5042807;28;20032;-76
2023/10/30 07:06:42;;;;;;;10.82;2.42;;;10.70;99.90;;;;;;5042551;28;20025;-78
2023/10/30 07:09:08;;;;;;;15.82;2.30;;;10.70;99.90;;;;;;5040364;28;20036;-79
2023/10/30 07:11:35;;;;;;;16.27;2.72;;;10.80;99.90;;;;;;5041151;28;20060;-78
2023/10/30 07:14:02;;;;;;;16.00;3.47;;;10.70;99.90;;;;;;5041664;28;20052;-80
2023/10/30 07:16:28;;;;;;;24.63;3.55;;;10.70;99.90;;;;;;5043075;28;20691;-80
2023/10/30 07:19:00;;;;;;;17.70;3.30;;;10.70;99.90;;;;;;5041580;28;20021;-77
2023/10/30 07:21:27;;;;;;;13.43;3.80;;;10.70;99.90;;;;;;5037039;28;20029;-78
2023/10/30 07:23:53;;;;;;;19.48;3.55;;;10.70;99.90;;;;;;5035144;28;20006;-78
2023/10/30 07:26:21;;;;;;;15.68;3.40;;;10.80;99.90;;;;;;5027059;28;20049;-78
2023/10/30 07:28:48;;;;;;;17.58;3.95;;;10.80;99.90;;;;;;5039946;28;20029;-80
2023/10/30 07:31:13;;;;;;;13.98;2.85;;;10.80;99.90;;;;;;5034082;28;20063;-79
2023/10/30 07:33:39;;;;;;;15.50;2.83;;;10.80;99.90;;;;;;5040457;28;20061;-82
2023/10/30 07:36:05;;;;;;;14.90;2.78;;;10.80;99.90;;;;;;5036933;28;20061;-78
2023/10/30 07:38:31;;;;;;;14.50;2.90;;;10.90;99.90;;;;;;5041075;28;20049;-77
2023/10/30 07:40:57;;;;;;;14.43;2.90;;;11.00;99.90;;;;;;5040127;28;20052;-79
2023/10/30 07:43:23;;;;;;;13.10;2.80;;;11.20;99.90;;;;;;5040625;28;20030;-77
2023/10/30 07:45:50;;;;;;;17.80;3.10;;;11.20;99.90;;;;;;5041512;28;20040;-83
2023/10/30 07:48:16;;;;;;;12.27;2.95;;;11.30;99.90;;;;;;5041930;28;20110;-78
2023/10/30 07:50:43;;;;;;;14.50;2.35;;;11.40;99.90;;;;;;5039371;28;20025;-78
2023/10/30 07:53:08;;;;;;;19.67;2.97;;;11.50;99.90;;;;;;5038872;28;20112;-78
2023/10/30 07:55:36;;;;;;;11.90;2.15;;;11.40;99.90;;;;;;5035576;28;20026;-76
2023/10/30 07:58:04;;;;;;;19.85;2.83;;;11.70;99.90;;;;;;5038559;28;20034;-77
2023/10/30 08:00:30;;;;;;;15.32;2.83;;;11.70;99.90;;;;;;5035918;28;20362;-77
2023/10/30 08:02:55;;;;;;;9.55;2.47;;;11.80;99.90;;;;;;5037729;28;20489;-80
2023/10/30 08:05:22;;;;;;;15.85;2.15;;;11.90;99.90;;;;;;5041225;28;20026;-78
2023/10/30 08:07:48;;;;;;;16.45;2.25;;;11.90;99.90;;;;;;5037013;28;20026;-77
2023/10/30 08:10:14;;;;;;;15.15;2.67;;;12.10;99.90;;;;;;5036026;28;20053;-78
2023/10/30 08:12:40;;;;;;;13.13;2.75;;;12.30;99.90;;;;;;5037752;28;20112;-78
2023/10/30 08:15:07;;;;;;;14.02;2.47;;;12.40;99.90;;;;;;5038202;28;20032;-76
2023/10/30 08:17:32;;;;;;;10.95;2.20;;;12.60;99.90;;;;;;5041418;28;20036;-78
2023/10/30 08:19:59;;;;;;;13.85;3.00;;;12.70;99.90;;;;;;5038825;28;20026;-79
2023/10/30 08:22:24;;;;;;;14.80;2.17;;;12.80;99.90;;;;;;5040787;28;20033;-79
2023/10/30 08:24:51;;;;;;;15.20;2.90;;;12.80;99.90;;;;;;5039333;28;20033;-77
2023/10/30 08:27:17;;;;;;;15.85;2.53;;;12.80;99.90;;;;;;5038126;28;20021;-78
2023/10/30 08:29:43;;;;;;;11.93;2.38;;;12.90;99.90;;;;;;5032976;28;20065;-77
2023/10/30 08:32:09;;;;;;;13.63;2.40;;;13.00;99.90;;;;;;5033793;28;20493;-79
2023/10/30 08:34:34;;;;;;;14.20;2.70;;;13.00;99.90;;;;;;5036506;28;20025;-77
2023/10/30 08:37:00;;;;;;;14.20;2.55;;;13.10;99.90;;;;;;5036587;28;20028;-78
2023/10/30 08:39:26;;;;;;;12.93;2.28;;;13.20;99.90;;;;;;5039930;28;20029;-77
2023/10/30 08:41:52;;;;;;;19.55;2.47;;;13.30;99.90;;;;;;5041145;28;20794;-78
2023/10/30 08:44:17;;;;;;;15.82;2.50;;;13.30;99.90;;;;;;5041028;28;20113;-81
2023/10/30 08:46:43;;;;;;;12.18;2.28;;;13.30;99.90;;;;;;5034223;28;20034;-74
2023/10/30 08:49:09;;;;;;;13.43;2.53;;;13.50;99.90;;;;;;5035552;28;20120;-80
2023/10/30 08:51:41;;;;;;;16.77;2.30;;;13.60;99.90;;;;;;5027817;28;20041;-80
2023/10/30 08:54:08;;;;;;;15.13;3.20;;;13.70;99.90;;;;;;5027020;28;20096;-79
2023/10/30 08:56:33;;;;;;;11.77;2.42;;;13.90;99.90;;;;;;5027136;28;20037;-80
2023/10/30 08:58:59;;;;;;;12.80;2.33;;;14.00;99.90;;;;;;5031118;28;20021;-77
2023/10/30 09:01:28;;;;;;;18.23;2.30;;;14.10;99.90;;;;;;5033426;28;20513;-76
2023/10/30 09:03:54;;;;;;;9.32;2.15;;;14.00;99.90;;;;;;5035967;28;20025;-80
2023/10/30 09:06:20;;;;;;;13.20;2.10;;;14.00;99.90;;;;;;5029165;28;20128;-78
2023/10/30 09:08:46;;;;;;;12.68;2.50;;;13.90;99.90;;;;;;5034716;28;20127;-80
2023/10/30 09:11:17;;;;;;;12.30;2.67;;;13.90;99.90;;;;;;5021988;28;21058;-82
2023/10/30 09:13:43;;;;;;;9.68;2.17;;;13.90;99.90;;;;;;5034534;28;20095;-78
2023/10/30 09:16:09;;;;;;;9.07;2.45;;;13.90;99.90;;;;;;5034811;28;20031;-75
2023/10/30 09:18:35;;;;;;;13.05;2.30;;;14.00;99.90;;;;;;5037479;28;20022;-78
2023/10/30 09:21:04;;;;;;;15.65;2.97;;;14.00;99.90;;;;;;5036437;28;20032;-79
2023/10/30 09:23:31;;;;;;;14.52;2.70;;;13.90;99.90;;;;;;5036103;28;20041;-80
2023/10/30 09:25:56;;;;;;;7.57;1.85;;;13.90;99.90;;;;;;5034771;28;20017;-77
2023/10/30 09:28:22;;;;;;;12.48;2.45;;;13.90;99.90;;;;;;5038210;28;20056;-77
2023/10/30 09:30:49;;;;;;;15.02;2.45;;;13.90;99.90;;;;;;5039398;28;20063;-73
2023/10/30 09:33:18;;;;;;;7.63;2.13;;;13.90;99.90;;;;;;5034797;28;20040;-77
2023/10/30 09:35:43;;;;;;;13.52;2.30;;;13.90;99.90;;;;;;5038664;28;20390;-75
2023/10/30 09:38:09;;;;;;;11.48;2.45;;;13.90;99.90;;;;;;5039455;28;20056;-80
2023/10/30 09:40:35;;;;;;;11.73;2.35;;;13.90;99.90;;;;;;5038119;28;20081;-76
2023/10/30 09:43:04;;;;;;;8.20;2.08;;;13.90;99.90;;;;;;5032497;28;20025;-78
2023/10/30 09:45:30;;;;;;;16.30;3.08;;;13.80;99.90;;;;;;5030074;28;20025;-77
2023/10/30 09:47:57;;;;;;;18.90;4.28;;;13.80;99.90;;;;;;5038916;28;20056;-77
2023/10/30 09:50:25;;;;;;;21.33;3.47;;;13.70;99.90;;;;;;5036997;28;20052;-79
2023/10/30 09:52:52;;;;;;;20.33;4.10;;;13.70;99.90;;;;;;5033105;28;20072;-75
2023/10/30 09:55:23;;;;;;;15.10;3.17;;;13.70;99.90;;;;;;5039640;28;20033;-76
2023/10/30 09:57:53;;;;;;;15.48;2.60;;;13.60;99.90;;;;;;5039175;28;20097;-74
2023/10/30 10:00:19;;;;;;;9.50;2.53;;;13.60;99.90;;;;;;5038054;28;20120;-76
2023/10/30 10:02:46;;;;;;;11.27;2.50;;;13.60;99.90;;;;;;5037319;28;20026;-80
2023/10/30 10:05:13;;;;;;;14.85;2.63;;;13.70;99.90;;;;;;5038177;28;20045;-77
2023/10/30 10:07:40;;;;;;;12.98;2.67;;;13.80;99.90;;;;;;5037658;28;20021;-77
2023/10/30 10:10:08;;;;;;;14.88;3.17;;;13.90;99.90;;;;;;5039799;28;20089;-75
2023/10/30 10:12:35;;;;;;;7.68;1.92;;;14.00;99.90;;;;;;5039085;28;20029;-79
2023/10/30 10:15:07;;;;;;;15.55;2.40;;;14.10;99.90;;;;;;5037916;28;20030;-80
2023/10/30 10:17:46;;;;;;;15.45;1.98;;;14.00;99.90;;;;;;5037136;28;20068;-78
2023/10/30 10:20:21;;;;;;;15.52;2.50;;;14.00;99.90;;;;;;5035947;28;20056;-79
2023/10/30 10:22:47;;;;;;;14.65;2.45;;;14.20;99.90;;;;;;5038229;28;20101;-77
2023/10/30 10:25:18;;;;;;;12.23;2.05;;;14.20;99.90;;;;;;5038989;28;20017;-73
2023/10/30 10:27:44;;;;;;;8.65;2.17;;;14.20;99.90;;;;;;5035564;28;20034;-74
2023/10/30 10:30:10;;;;;;;8.50;2.35;;;14.20;99.90;;;;;;5037273;28;20033;-78
2023/10/30 10:32:37;;;;;;;20.75;2.20;;;14.10;99.90;;;;;;5033719;28;20034;-74
2023/10/30 10:35:05;;;;;;;16.10;3.05;;;14.10;99.90;;;;;;5039202;28;20033;-80
2023/10/30 10:37:32;;;;;;;13.20;3.00;;;14.10;99.90;;;;;;5032255;28;20056;-77
2023/10/30 10:40:05;;;;;;;15.05;3.13;;;14.10;99.90;;;;;;5035948;28;20045;-76
2023/10/30 10:42:32;;;;;;;18.08;3.05;;;14.10;99.90;;;;;;5038416;28;20041;-75
2023/10/30 10:44:59;;;;;;;14.20;2.30;;;14.20;99.90;;;;;;5040316;28;20081;-78
2023/10/30 10:47:25;;;;;;;12.35;2.97;;;14.20;99.90;;;;;;5038733;28;20437;-76
2023/10/30 10:49:51;;;;;;;21.38;3.10;;;14.30;99.90;;;;;;5040652;28;20022;-73
2023/10/30 10:52:29;;;;;;;12.73;3.20;;;14.30;99.90;;;;;;5036685;28;20042;-77
2023/10/30 10:55:10;;;;;;;14.32;3.65;;;14.30;99.90;;;;;;5039407;28;20025;-78
2023/10/30 10:57:57;;;;;;;15.90;3.97;;;14.30;99.90;;;;;;5038385;28;20026;-78
2023/10/30 11:00:28;;;;;;;15.48;3.42;;;14.30;99.90;;;;;;5038728;28;20079;-77
2023/10/30 11:03:00;;;;;;;15.77;3.83;;;14.30;99.90;;;;;;5036644;28;20039;-74
2023/10/30 11:05:30;;;;;;;19.02;3.50;;;14.30;99.90;;;;;;5037677;28;20121;-82
2023/10/30 11:08:33;;;;;;;14.57;3.47;;;14.30;99.90;;;;;;5040164;28;20018;-79
2023/10/30 11:11:11;;;;;;;20.58;8.30;;;14.30;99.90;;;;;;5028050;28;20438;-81
2023/10/30 11:13:47;;;;;;;21.42;3.78;;;14.30;99.90;;;;;;5036335;28;20128;-79
2023/10/30 11:16:35;;;;;;;18.15;3.95;;;14.40;99.90;;;;;;5036453;28;20036;-78
2023/10/30 11:19:10;;;;;;;14.38;3.28;;;14.50;99.90;;;;;;5035869;28;20041;-74
2023/10/30 11:21:35;;;;;;;10.77;2.83;;;14.60;99.90;;;;;;5028517;28;20041;-77
2023/10/30 11:24:02;;;;;;;15.25;2.70;;;14.70;99.90;;;;;;5030928;28;20029;-78
2023/10/30 11:26:36;;;;;;;10.25;2.35;;;14.70;99.90;;;;;;5025777;28;20065;-77
2023/10/30 11:29:12;;;;;;;21.80;3.10;;;14.80;99.90;;;;;;5028409;28;20037;-77
2023/10/30 11:32:14;;;;;;;9.27;2.60;;;14.90;99.90;;;;;;5024408;28;20470;-74
2023/10/30 11:34:40;;;;;;;18.42;2.63;;;14.90;99.90;;;;;;5010079;28;20030;-77
2023/10/30 11:37:15;;;;;;;22.20;3.15;;;15.10;99.90;;;;;;5034253;28;20563;-75
2023/10/30 11:39:42;;;;;;;12.30;2.22;;;15.20;99.90;;;;;;5040419;28;20029;-74
2023/10/30 11:42:24;;;;;;;13.18;2.40;;;15.40;99.90;;;;;;5037936;28;20056;-74
2023/10/30 11:44:51;;;;;;;14.35;2.20;;;15.50;99.90;;;;;;5041001;28;20047;-72
2023/10/30 11:47:24;;;;;;;11.40;2.00;;;15.60;99.90;;;;;;5043214;28;20419;-76
2023/10/30 11:49:50;;;;;;;11.82;2.20;;;15.70;99.90;;;;;;5043357;28;20119;-77
2023/10/30 11:52:15;;;;;;;14.40;2.65;;;15.80;99.90;;;;;;5043183;28;20482;-75
2023/10/30 11:54:44;;;;;;;12.70;2.40;;;15.70;99.90;;;;;;5042955;28;20079;-75
2023/10/30 11:57:10;;;;;;;10.15;2.40;;;15.70;99.90;;;;;;5043188;28;20037;-78
2023/10/30 11:59:38;;;;;;;13.77;3.25;;;15.50;99.90;;;;;;5043871;28;20391;-78
2023/10/30 12:02:07;;;;;;;8.02;2.05;;;15.40;99.90;;;;;;5045290;28;20022;-79
2023/10/30 12:04:33;;;;;;;14.38;2.30;;;15.40;99.90;;;;;;5042182;28;20022;-76
2023/10/30 12:06:58;;;;;;;12.70;2.40;;;15.30;99.90;;;;;;5042543;28;20033;-77
2023/10/30 12:09:27;;;;;;;14.73;2.22;;;15.20;99.90;;;;;;5042797;28;20030;-77
2023/10/30 12:11:55;;;;;;;11.60;2.72;;;15.10;99.90;;;;;;5041626;28;20037;-75
2023/10/30 12:14:21;;;;;;;13.45;2.53;;;15.00;99.90;;;;;;5042380;28;20476;-77
2023/10/30 12:16:51;;;;;;;16.00;2.95;;;15.00;99.90;;;;;;5042695;28;20029;-76
2023/10/30 12:19:20;;;;;;;14.07;2.67;;;14.90;99.90;;;;;;5042589;28;20033;-81
2023/10/30 12:21:47;;;;;;;8.93;2.17;;;14.90;99.90;;;;;;5039910;28;20045;-77
2023/10/30 12:24:16;;;;;;;18.23;2.45;;;14.90;99.90;;;;;;5041790;28;20030;-77
2023/10/30 12:26:42;;;;;;;16.60;2.90;;;14.90;99.90;;;;;;5042670;28;20100;-78
2023/10/30 12:29:08;;;;;;;17.75;2.85;;;14.80;99.90;;;;;;5043178;28;20036;-74
2023/10/30 12:31:35;;;;;;;10.20;2.50;;;14.80;99.90;;;;;;5040903;28;20038;-78
2023/10/30 12:34:08;;;;;;;13.50;2.45;;;14.80;99.90;;;;;;5041934;28;20029;-80
2023/10/30 12:36:34;;;;;;;12.70;2.33;;;14.80;99.90;;;;;;5037254;28;20037;-77
2023/10/30 12:39:21;;;;;;;13.90;2.53;;;14.70;99.90;;;;;;5041412;28;20090;-79